Time;durP1;ratioP1;P1;durP2;ratioP2;P2;SDS_P1;SDS_P2;PMS_P1;PMS_P2;Temp;Humidity;BMP_temperature;BMP_pressure;BME280_temperature;BME280_humidity;BME280_pressure;Samples;Min_cycle;Max_cycle;Signal;HPM_P1;HPM_P2
2022/05/01 00:00:05;;;;;;;4.33;2.92;;;;;;;10.62;61.56;100905.95;1701627;82;21106;-75
2022/05/01 00:02:32;;;;;;;5.37;2.90;;;;;;;10.61;61.35;100909.52;1701988;81;22529;-75
2022/05/01 00:04:58;;;;;;;5.12;3.00;;;;;;;10.58;61.40;100905.31;1694151;83;21486;-76
2022/05/01 00:07:25;;;;;;;5.62;3.20;;;;;;;10.56;61.44;100903.73;1735900;81;21099;-76
2022/05/01 00:09:51;;;;;;;6.00;3.00;;;;;;;10.54;61.54;100913.09;1694357;82;21639;-76
2022/05/01 00:12:18;;;;;;;4.47;2.85;;;;;;;10.52;61.59;100909.72;1684725;83;21436;-78
2022/05/01 00:14:44;;;;;;;5.87;3.35;;;;;;;10.50;61.52;100913.41;1691211;82;21837;-75
2022/05/01 00:17:11;;;;;;;4.78;3.12;;;;;;;10.48;61.65;100920.12;1720386;81;20920;-75
2022/05/01 00:19:38;;;;;;;3.50;2.55;;;;;;;10.47;61.28;100921.08;1729988;81;21008;-74
2022/05/01 00:22:04;;;;;;;5.55;2.77;;;;;;;10.48;60.54;100921.91;1707510;82;21484;-74
2022/05/01 00:24:32;;;;;;;5.60;2.67;;;;;;;10.49;59.97;100917.00;1708179;83;21471;-74
2022/05/01 00:27:00;;;;;;;4.35;2.75;;;;;;;10.52;59.85;100919.45;1691702;82;22499;-74
2022/05/01 00:29:27;;;;;;;5.75;3.00;;;;;;;10.49;58.63;100913.88;1700533;82;20958;-75
2022/05/01 00:31:53;;;;;;;5.35;2.60;;;;;;;10.52;58.05;100918.13;1715972;81;21010;-74
2022/05/01 00:37:04;;;;;;;6.33;2.90;;;;;;;10.51;58.38;100922.53;1696126;82;20967;-76
2022/05/01 00:39:31;;;;;;;5.42;2.70;;;;;;;10.49;58.42;100927.08;1706409;83;21839;-76
2022/05/01 00:41:58;;;;;;;4.75;2.60;;;;;;;10.48;58.45;100932.48;1690031;82;20958;-75
2022/05/01 00:44:24;;;;;;;4.33;2.65;;;;;;;10.44;58.68;100936.30;1729736;81;20881;-74
2022/05/01 00:46:52;;;;;;;3.67;2.50;;;;;;;10.41;58.41;100930.73;1726687;82;21450;-75
2022/05/01 00:49:23;;;;;;;8.48;3.02;;;;;;;10.35;58.43;100931.66;1699859;83;20954;-75
2022/05/01 00:51:57;;;;;;;3.33;2.35;;;;;;;10.30;58.58;100928.84;1703970;82;21753;-75
2022/05/01 00:54:26;;;;;;;6.53;2.50;;;;;;;10.28;58.66;100928.11;1721833;82;23242;-74
2022/05/01 00:56:55;;;;;;;5.20;2.70;;;;;;;10.25;58.67;100925.69;1711604;82;21011;-75
2022/05/01 00:59:23;;;;;;;5.53;2.83;;;;;;;10.21;58.89;100926.80;1690464;83;21060;-75
2022/05/01 01:01:50;;;;;;;5.90;2.77;;;;;;;10.17;58.39;100924.50;1691010;83;21189;-75
2022/05/01 01:04:17;;;;;;;5.42;2.60;;;;;;;10.19;58.61;100920.80;1678432;83;21638;-75
2022/05/01 01:06:45;;;;;;;5.00;2.85;;;;;;;10.22;58.26;100922.41;1699714;81;21088;-75
2022/05/01 01:09:12;;;;;;;4.90;2.72;;;;;;;10.22;58.47;100923.25;1710853;81;21057;-75
2022/05/01 01:11:39;;;;;;;5.58;2.75;;;;;;;10.22;58.63;100925.88;1737222;82;21064;-76
2022/05/01 01:14:06;;;;;;;4.90;2.72;;;;;;;10.22;58.71;100931.16;1712521;82;20840;-75
2022/05/01 01:16:36;;;;;;;4.40;2.72;;;;;;;10.22;58.68;100928.52;1707338;82;21804;-75
2022/05/01 01:19:05;;;;;;;6.28;2.85;;;;;;;10.22;59.06;100927.68;1723035;82;21209;-75
2022/05/01 01:21:32;;;;;;;4.58;2.70;;;;;;;10.20;59.01;100933.04;1738939;81;20985;-75
2022/05/01 01:23:59;;;;;;;5.25;2.58;;;;;;;10.20;59.20;100929.08;1695123;82;21206;-76
2022/05/01 01:26:26;;;;;;;5.40;2.80;;;;;;;10.21;59.38;100934.73;1672657;84;21148;-76
2022/05/01 01:28:52;;;;;;;5.15;2.80;;;;;;;10.20;59.54;100934.36;1683399;83;21832;-74
2022/05/01 01:34:05;;;;;;;6.30;2.60;;;;;;;10.18;59.42;100930.98;1684668;83;21067;-73
2022/05/01 01:36:32;;;;;;;3.70;2.37;;;;;;;10.18;59.34;100933.62;1691316;82;21059;-73
2022/05/01 01:38:59;;;;;;;6.70;2.58;;;;;;;10.19;58.72;100931.35;1695831;82;21057;-74
2022/05/01 01:41:28;;;;;;;6.28;2.62;;;;;;;10.21;58.46;100933.41;1707890;83;21802;-73
2022/05/01 01:43:56;;;;;;;3.92;2.42;;;;;;;10.23;57.60;100930.24;1705187;82;21049;-74
2022/05/01 01:46:23;;;;;;;5.75;2.58;;;;;;;10.26;56.74;100933.98;1711095;82;20954;-74
2022/05/01 01:48:50;;;;;;;4.72;2.55;;;;;;;10.30;56.50;100929.32;1713334;83;21302;-74
2022/05/01 01:51:18;;;;;;;5.25;2.40;;;;;;;10.36;56.44;100935.98;1704626;83;20950;-74
2022/05/01 01:53:46;;;;;;;7.03;2.77;;;;;;;10.39;55.95;100934.44;1696773;82;21812;-75
2022/05/01 01:56:12;;;;;;;4.47;2.70;;;;;;;10.41;55.50;100932.53;1717341;81;21176;-76
2022/05/01 01:58:40;;;;;;;6.70;2.60;;;;;;;10.43;55.62;100938.58;1689219;81;21015;-75
2022/05/01 02:01:08;;;;;;;4.47;2.45;;;;;;;10.45;54.95;100935.34;1709181;82;21022;-74
2022/05/01 02:03:34;;;;;;;6.67;2.90;;;;;;;10.48;54.93;100935.97;1706919;82;21506;-73
2022/05/01 02:06:04;;;;;;;5.25;2.83;;;;;;;10.49;54.88;100939.45;1684901;83;22575;-73
2022/05/01 02:08:34;;;;;;;6.72;2.95;;;;;;;10.50;54.65;100942.45;1681212;83;21538;-72
2022/05/01 02:11:03;;;;;;;4.55;2.83;;;;;;;10.49;54.13;100940.77;1712835;82;20966;-74
2022/05/01 02:13:30;;;;;;;5.97;2.90;;;;;;;10.49;53.87;100941.61;1711214;81;21172;-73
2022/05/01 02:15:57;;;;;;;4.45;2.80;;;;;;;10.50;53.61;100941.98;1715821;81;21429;-75
2022/05/01 02:18:23;;;;;;;4.90;3.10;;;;;;;10.49;53.38;100937.65;1697977;83;21795;-74
2022/05/01 02:23:36;;;;;;;3.58;2.40;;;;;;;10.51;53.02;100944.98;1702747;82;21211;-74
2022/05/01 02:26:02;;;;;;;3.85;2.67;;;;;;;10.50;52.95;100947.73;1714385;82;21494;-75
2022/05/01 02:28:29;;;;;;;4.87;2.58;;;;;;;10.50;52.98;100948.58;1706126;82;21479;-74
2022/05/01 02:30:55;;;;;;;5.53;2.67;;;;;;;10.51;52.66;100938.86;1700381;83;21744;-75
2022/05/01 02:33:22;;;;;;;6.17;2.40;;;;;;;10.50;52.76;100943.77;1684435;83;21012;-76
2022/05/01 02:35:48;;;;;;;4.17;2.80;;;;;;;10.50;52.59;100948.58;1705110;83;21012;-76
2022/05/01 02:38:15;;;;;;;5.53;2.83;;;;;;;10.50;53.39;100945.09;1711839;82;21272;-75
2022/05/01 02:40:42;;;;;;;5.10;2.70;;;;;;;10.44;53.92;100949.03;1695574;82;21445;-76
2022/05/01 02:43:09;;;;;;;9.23;2.67;;;;;;;10.41;53.78;100953.66;1710072;82;22626;-76
2022/05/01 02:45:37;;;;;;;5.37;2.70;;;;;;;10.39;53.47;100950.28;1711352;82;21042;-76
2022/05/01 02:48:04;;;;;;;6.12;2.80;;;;;;;10.40;53.38;100959.42;1691717;83;20980;-75
2022/05/01 02:50:31;;;;;;;5.78;2.42;;;;;;;10.42;53.76;100957.98;1708600;83;21103;-75
2022/05/01 02:52:59;;;;;;;4.00;2.52;;;;;;;10.43;53.84;100967.62;1699458;82;21116;-76
2022/05/01 02:55:25;;;;;;;4.62;2.80;;;;;;;10.44;53.19;100964.03;1693032;82;21799;-75
2022/05/01 02:57:54;;;;;;;4.83;2.83;;;;;;;10.43;53.42;100963.19;1699348;82;21020;-74
2022/05/01 03:00:20;;;;;;;7.85;2.67;;;;;;;10.41;53.96;100965.06;1717373;81;21621;-74
2022/05/01 03:02:48;;;;;;;3.83;2.67;;;;;;;10.40;54.18;100964.70;1736990;81;20965;-77
2022/05/01 03:05:16;;;;;;;5.92;3.10;;;;;;;10.37;54.75;100960.96;1694499;83;21590;-76
2022/05/01 03:07:42;;;;;;;7.33;3.25;;;;;;;10.33;54.91;100966.09;1705223;82;21940;-75
2022/05/01 03:10:11;;;;;;;4.50;3.50;;;;;;;10.29;55.10;100964.59;1689316;83;21188;-74
2022/05/01 03:12:37;;;;;;;7.15;3.20;;;;;;;10.27;55.71;100963.87;1705360;82;21078;-76
2022/05/01 03:15:08;;;;;;;6.10;3.37;;;;;;;10.24;55.89;100968.89;1719119;82;21096;-77
2022/05/01 03:23:05;;;;;;;5.50;2.92;;;;;;;10.25;57.00;100977.66;1705214;82;20964;-76
2022/05/01 03:25:32;;;;;;;5.53;2.80;;;;;;;10.23;57.40;100985.69;1705860;81;21533;-75
2022/05/01 03:27:59;;;;;;;5.45;2.85;;;;;;;10.25;57.44;100986.42;1714037;83;21023;-74
2022/05/01 03:30:26;;;;;;;4.83;2.40;;;;;;;10.26;57.56;100982.83;1714939;82;21462;-74
2022/05/01 03:32:52;;;;;;;4.75;2.75;;;;;;;10.26;57.34;100992.06;1709673;82;22636;-74
2022/05/01 03:35:19;;;;;;;4.12;2.62;;;;;;;10.24;57.96;100986.53;1695802;82;20991;-74
2022/05/01 03:37:48;;;;;;;7.25;2.95;;;;;;;10.21;58.04;100996.77;1705136;82;20973;-73
2022/05/01 03:40:15;;;;;;;4.53;2.62;;;;;;;10.18;58.07;100989.06;1693342;83;21006;-74
2022/05/01 03:42:43;;;;;;;5.45;2.95;;;;;;;10.20;58.30;100999.52;1697777;82;20989;-74
2022/05/01 03:45:10;;;;;;;4.78;2.80;;;;;;;10.20;58.35;101000.36;1698289;82;21961;-75
2022/05/01 03:47:37;;;;;;;7.10;2.95;;;;;;;10.22;57.82;100997.64;1718487;82;20993;-75
2022/05/01 03:50:05;;;;;;;5.20;2.87;;;;;;;10.22;57.71;100994.52;1685816;83;20971;-73
2022/05/01 03:52:35;;;;;;;4.28;2.35;;;;;;;10.26;57.78;100993.86;1698275;82;20997;-75
2022/05/01 03:55:01;;;;;;;5.22;2.33;;;;;;;10.29;58.05;100996.28;1701168;82;21541;-76
2022/05/01 03:57:28;;;;;;;3.65;2.70;;;;;;;10.28;57.39;100988.84;1723442;82;22913;-76
2022/05/01 03:59:54;;;;;;;3.95;2.50;;;;;;;10.32;57.18;100996.91;1707005;83;21498;-76
2022/05/01 04:02:21;;;;;;;6.62;2.77;;;;;;;10.36;57.77;100997.56;1685486;82;21040;-76
2022/05/01 04:04:49;;;;;;;3.70;2.62;;;;;;;10.38;57.80;100995.66;1712160;82;21032;-75
2022/05/01 04:07:16;;;;;;;4.83;2.75;;;;;;;10.42;58.09;100994.95;1701650;82;21075;-75
2022/05/01 04:09:43;;;;;;;4.33;2.67;;;;;;;10.43;57.57;100998.00;1694978;82;22613;-76
2022/05/01 04:12:11;;;;;;;6.78;2.90;;;;;;;10.46;57.41;100998.62;1711494;82;21666;-75
2022/05/01 04:14:39;;;;;;;4.62;2.70;;;;;;;10.49;57.02;100994.44;1709809;82;20965;-76
2022/05/01 04:17:05;;;;;;;6.90;2.90;;;;;;;10.53;57.02;100993.77;1712158;82;21074;-75
2022/05/01 04:19:32;;;;;;;6.83;2.80;;;;;;;10.53;56.56;101003.02;1714272;82;21050;-76
2022/05/01 04:21:59;;;;;;;4.53;2.55;;;;;;;10.56;56.45;101001.47;1710140;82;21595;-75
2022/05/01 04:24:25;;;;;;;3.95;2.70;;;;;;;10.59;56.56;100997.28;1699756;83;21100;-77
2022/05/01 04:26:52;;;;;;;5.97;2.75;;;;;;;10.64;56.43;101000.47;1695892;82;21028;-76
2022/05/01 04:29:37;;;;;;;4.50;2.90;;;;;;;10.68;56.22;100999.28;1707509;82;21003;-75
2022/05/01 04:32:05;;;;;;;6.05;2.98;;;;;;;10.74;56.86;100998.87;1716983;81;21091;-76
2022/05/01 04:34:33;;;;;;;3.92;3.10;;;;;;;10.79;56.65;100990.13;1711131;82;21966;-75
2022/05/01 04:36:59;;;;;;;4.20;3.17;;;;;;;10.84;56.42;100998.59;1707835;82;21103;-76
2022/05/01 04:39:26;;;;;;;4.33;2.85;;;;;;;10.88;55.75;101000.05;1702922;82;20994;-77
2022/05/01 04:41:53;;;;;;;7.85;3.45;;;;;;;10.97;55.63;101004.32;1722162;81;21003;-74
2022/05/01 04:44:20;;;;;;;6.55;3.87;;;;;;;11.04;55.19;100997.66;1708827;82;20998;-77
2022/05/01 04:46:49;;;;;;;5.85;3.80;;;;;;;11.11;55.00;101004.20;1708859;81;22449;-77
2022/05/01 04:49:18;;;;;;;10.28;4.55;;;;;;;11.17;53.91;101001.09;1705964;82;21024;-78
2022/05/01 04:51:46;;;;;;;5.47;4.40;;;;;;;11.18;53.55;101006.75;1722362;82;21073;-77
2022/05/01 04:54:12;;;;;;;5.28;3.30;;;;;;;11.24;53.16;101005.00;1698440;83;21045;-77
2022/05/01 04:59:24;;;;;;;5.78;3.27;;;;;;;11.36;52.60;101008.55;1708406;82;21928;-78
2022/05/01 05:01:50;;;;;;;5.15;3.42;;;;;;;11.42;52.16;101006.31;1710618;82;21005;-77
2022/05/01 05:04:17;;;;;;;5.33;3.02;;;;;;;11.47;52.05;101008.61;1702636;82;20972;-77
2022/05/01 05:06:44;;;;;;;4.28;2.90;;;;;;;11.55;52.07;101013.34;1706274;82;21163;-77
2022/05/01 05:11:57;;;;;;;6.97;2.92;;;;;;;11.73;51.47;101011.99;1705415;82;21848;-77
2022/05/01 05:14:23;;;;;;;5.22;3.17;;;;;;;11.80;50.51;101019.04;1698496;82;21091;-72
2022/05/01 05:16:51;;;;;;;4.97;3.10;;;;;;;11.86;50.94;101023.86;1692125;82;20957;-81
2022/05/01 05:19:18;;;;;;;5.12;3.27;;;;;;;11.94;50.86;101021.01;1698243;82;20973;-82
2022/05/01 05:21:46;;;;;;;5.62;3.20;;;;;;;11.98;50.93;101022.48;1710087;83;21082;-81
2022/05/01 05:24:12;;;;;;;5.50;3.10;;;;;;;12.06;50.71;101021.88;1708853;81;22799;-77
2022/05/01 05:26:39;;;;;;;4.70;2.80;;;;;;;12.11;50.42;101026.84;1705950;82;20995;-77
2022/05/01 05:29:06;;;;;;;5.85;3.00;;;;;;;12.10;49.55;101027.81;1687405;82;21382;-80
2022/05/01 05:31:32;;;;;;;3.83;2.60;;;;;;;12.10;49.96;101027.33;1710301;82;21094;-79
2022/05/01 05:33:59;;;;;;;7.72;3.05;;;;;;;12.10;49.98;101024.69;1711714;82;21059;-78
2022/05/01 05:36:25;;;;;;;6.67;2.62;;;;;;;12.13;50.10;101034.19;1698082;82;22490;-77
2022/05/01 05:38:52;;;;;;;5.17;2.80;;;;;;;12.18;50.11;101027.60;1690850;83;21076;-75
2022/05/01 05:41:19;;;;;;;7.60;5.83;;;;;;;12.23;49.87;101026.75;1708938;81;21032;-77
2022/05/01 05:43:46;;;;;;;5.17;3.50;;;;;;;12.25;50.13;101025.31;1701576;82;21107;-77
2022/05/01 05:46:12;;;;;;;6.65;3.08;;;;;;;12.28;49.78;101026.42;1693732;83;21035;-73
2022/05/01 05:48:40;;;;;;;3.58;2.70;;;;;;;12.32;49.65;101026.54;1698634;82;21048;-74
2022/05/01 05:51:07;;;;;;;3.05;2.30;;;;;;;12.32;49.62;101026.54;1692640;82;21716;-77
2022/05/01 05:53:34;;;;;;;4.62;2.90;;;;;;;12.34;49.96;101024.61;1698863;82;21431;-75
2022/05/01 05:56:01;;;;;;;5.87;2.62;;;;;;;12.36;49.92;101023.20;1697420;82;21034;-75
2022/05/01 05:58:28;;;;;;;8.93;2.83;;;;;;;12.42;50.25;101022.22;1680851;82;21449;-81
2022/05/01 06:00:54;;;;;;;6.37;2.95;;;;;;;12.49;50.12;101022.12;1692944;82;21786;-74
2022/05/01 06:03:21;;;;;;;4.58;2.90;;;;;;;12.52;49.76;101025.01;1686980;83;21044;-75
2022/05/01 06:05:48;;;;;;;17.98;15.98;;;;;;;12.49;48.62;101024.77;1686639;82;21055;-74
2022/05/01 06:08:15;;;;;;;8.08;4.25;;;;;;;12.40;48.92;101024.16;1712921;82;21227;-76
2022/05/01 06:10:43;;;;;;;6.03;3.55;;;;;;;12.37;48.48;101024.88;1696268;82;21020;-77
2022/05/01 06:13:10;;;;;;;6.45;3.05;;;;;;;12.41;48.68;101016.56;1709166;82;21831;-79
2022/05/01 06:15:38;;;;;;;6.17;2.80;;;;;;;12.50;48.40;101020.31;1658395;84;21239;-82
2022/05/01 06:18:05;;;;;;;3.98;2.70;;;;;;;12.59;47.65;101016.47;1666679;82;21020;-77
2022/05/01 06:20:31;;;;;;;3.65;2.60;;;;;;;12.65;47.32;101019.63;1707652;82;21096;-77
2022/05/01 06:22:58;;;;;;;4.83;2.60;;;;;;;12.75;47.44;101017.45;1704800;82;21098;-77
2022/05/01 06:25:25;;;;;;;3.42;2.45;;;;;;;12.90;47.47;101020.21;1686128;83;21792;-75
2022/05/01 06:27:51;;;;;;;4.12;2.47;;;;;;;13.06;46.62;101026.48;1698461;83;21088;-76
2022/05/01 06:30:18;;;;;;;5.67;2.58;;;;;;;13.21;46.10;101019.61;1700426;83;21035;-75
2022/05/01 06:32:44;;;;;;;6.25;2.70;;;;;;;13.35;45.57;101025.51;1682408;83;21539;-75
2022/05/01 06:35:11;;;;;;;5.55;2.50;;;;;;;13.45;44.30;101011.86;1683673;83;21541;-76
2022/05/01 06:37:39;;;;;;;3.40;2.60;;;;;;;13.52;44.58;101023.31;1686888;83;21939;-77
2022/05/01 06:40:06;;;;;;;4.30;2.45;;;;;;;13.60;43.82;101016.87;1696021;83;21079;-77
2022/05/01 06:42:33;;;;;;;3.83;2.40;;;;;;;13.64;43.92;101017.83;1667344;83;21562;-76
2022/05/01 06:45:00;;;;;;;5.33;2.60;;;;;;;13.72;43.61;101013.23;1708637;83;21075;-76
2022/05/01 06:47:26;;;;;;;4.08;2.33;;;;;;;13.82;43.52;101015.48;1692093;83;21123;-77
2022/05/01 06:49:54;;;;;;;5.35;2.72;;;;;;;13.96;43.69;101017.81;1707024;83;21036;-74
2022/05/01 06:52:23;;;;;;;3.65;2.52;;;;;;;14.10;43.48;101019.34;1695373;82;21685;-74
2022/05/01 06:54:54;;;;;;;4.37;2.33;;;;;;;14.25;42.89;101020.69;1695075;83;21051;-75
2022/05/01 06:57:21;;;;;;;3.02;1.95;;;;;;;14.40;42.69;101018.55;1694442;82;21060;-75
2022/05/01 06:59:47;;;;;;;3.00;2.20;;;;;;;14.53;41.84;101021.03;1663451;83;21044;-73
2022/05/01 07:02:14;;;;;;;6.28;2.22;;;;;;;14.62;41.65;101018.07;1707677;83;21780;-74
2022/05/01 07:04:41;;;;;;;4.62;2.50;;;;;;;14.69;41.34;101021.89;1694609;83;21355;-76
2022/05/01 07:07:07;;;;;;;5.53;2.20;;;;;;;14.69;40.89;101026.72;1696193;81;21483;-75
2022/05/01 07:09:35;;;;;;;5.55;2.02;;;;;;;14.63;40.79;101027.23;1681329;82;21485;-75
2022/05/01 07:12:02;;;;;;;3.77;1.95;;;;;;;14.66;40.88;101020.81;1681328;83;21544;-73
2022/05/01 07:14:29;;;;;;;3.90;2.30;;;;;;;14.65;39.99;101015.98;1693852;83;21932;-73
2022/05/01 07:16:55;;;;;;;7.47;2.40;;;;;;;14.71;40.80;101019.94;1691411;83;21498;-73
2022/05/01 07:19:22;;;;;;;4.67;2.08;;;;;;;14.75;40.07;101019.53;1688652;83;21091;-73
2022/05/01 07:21:51;;;;;;;2.98;2.17;;;;;;;14.78;39.63;101023.27;1696167;83;21043;-72
2022/05/01 07:24:18;;;;;;;3.02;2.00;;;;;;;14.86;39.75;101019.92;1705231;83;21048;-73
2022/05/01 07:26:45;;;;;;;3.08;2.05;;;;;;;14.96;39.27;101023.95;1688253;83;21555;-73
2022/05/01 07:29:12;;;;;;;3.17;1.87;;;;;;;15.05;39.69;101019.99;1699120;83;21501;-73
2022/05/01 07:31:39;;;;;;;4.75;1.80;;;;;;;15.18;40.14;101022.44;1692254;83;21525;-74
2022/05/01 07:34:06;;;;;;;3.05;1.90;;;;;;;15.36;39.45;101013.31;1683840;82;21668;-73
2022/05/01 07:36:33;;;;;;;3.50;1.92;;;;;;;15.49;39.06;101013.88;1693999;83;21612;-73
2022/05/01 07:38:59;;;;;;;3.67;1.87;;;;;;;15.62;38.64;101014.97;1680421;83;22635;-74
2022/05/01 07:41:27;;;;;;;2.75;1.60;;;;;;;15.68;37.65;101013.94;1681506;83;21523;-73
2022/05/01 07:43:55;;;;;;;4.97;1.50;;;;;;;15.72;37.39;101016.66;1680590;83;21039;-76
2022/05/01 07:46:22;;;;;;;1.57;1.10;;;;;;;15.74;36.19;101015.22;1704623;83;21052;-74
2022/05/01 07:48:49;;;;;;;4.70;1.70;;;;;;;15.71;35.14;101016.31;1693407;83;21052;-73
2022/05/01 07:51:16;;;;;;;2.70;1.42;;;;;;;15.66;35.38;101013.24;1685788;83;22345;-75
2022/05/01 07:53:42;;;;;;;2.20;1.40;;;;;;;15.70;36.12;101008.47;1687553;83;21079;-73
2022/05/01 07:56:09;;;;;;;2.17;1.60;;;;;;;15.81;36.00;101008.33;1686912;83;21033;-73
2022/05/01 07:58:36;;;;;;;3.15;1.52;;;;;;;15.88;34.70;101003.29;1687643;83;21090;-74
2022/05/01 08:01:03;;;;;;;5.33;1.80;;;;;;;15.90;34.73;100997.32;1701754;83;21059;-73
2022/05/01 08:06:16;;;;;;;3.27;1.60;;;;;;;16.06;34.29;100998.93;1705989;83;21138;-79
2022/05/01 08:08:43;;;;;;;4.55;1.95;;;;;;;16.09;34.89;100999.97;1708507;83;21326;-77
2022/05/01 08:11:12;;;;;;;4.03;1.70;;;;;;;16.10;34.76;100998.14;1705041;82;21035;-76
2022/05/01 08:13:39;;;;;;;3.62;1.67;;;;;;;16.13;35.27;100998.72;1665930;84;21043;-74
2022/05/01 08:16:06;;;;;;;2.67;1.50;;;;;;;16.20;34.30;100998.97;1695261;82;21825;-74
2022/05/01 08:21:18;;;;;;;2.33;1.40;;;;;;;16.20;33.81;100992.30;1704364;83;21514;-74
2022/05/01 08:23:44;;;;;;;2.75;1.52;;;;;;;16.14;34.29;100994.23;1669163;85;21519;-73
2022/05/01 08:26:11;;;;;;;4.80;1.60;;;;;;;16.18;34.40;100987.13;1711570;82;21499;-75
2022/05/01 08:28:41;;;;;;;3.37;1.40;;;;;;;16.24;32.95;100983.06;1714370;83;21819;-77
2022/05/01 08:31:07;;;;;;;3.52;1.70;;;;;;;16.19;33.01;100984.80;1701985;82;21063;-76
2022/05/01 08:33:35;;;;;;;2.62;1.70;;;;;;;16.15;32.73;100982.58;1699436;82;21007;-72
2022/05/01 08:36:04;;;;;;;2.50;1.47;;;;;;;16.20;34.24;100969.66;1695199;82;21470;-74
2022/05/01 08:38:31;;;;;;;2.35;1.40;;;;;;;16.39;34.03;100970.09;1704573;82;21036;-73
2022/05/01 08:40:57;;;;;;;2.85;1.52;;;;;;;16.49;33.08;100962.41;1699985;82;22883;-72
2022/05/01 08:43:25;;;;;;;2.35;1.45;;;;;;;16.61;33.72;100967.09;1702713;82;21569;-73
2022/05/01 08:46:34;;;;;;;2.80;1.70;;;;;;;16.74;33.67;100968.95;1694155;82;21047;-73
2022/05/01 08:49:05;;;;;;;1.90;1.40;;;;;;;16.86;33.63;100961.59;1706659;82;21060;-74
2022/05/01 08:51:40;;;;;;;1.87;1.30;;;;;;;17.10;34.13;100964.56;1696395;82;21574;-77
2022/05/01 08:54:10;;;;;;;2.37;1.40;;;;;;;17.30;31.24;100967.11;1703760;82;21842;-76
2022/05/01 08:56:37;;;;;;;3.08;1.30;;;;;;;17.28;32.01;100963.77;1706069;82;21064;-75
2022/05/01 08:59:05;;;;;;;5.05;1.55;;;;;;;17.25;30.76;100948.02;1704806;83;21003;-75
2022/05/01 09:01:36;;;;;;;3.72;1.42;;;;;;;17.13;31.31;100950.07;1676922;83;21550;-77
2022/05/01 09:04:04;;;;;;;2.17;1.30;;;;;;;17.14;31.74;100955.26;1705810;83;21089;-84
2022/05/01 09:06:31;;;;;;;1.87;1.10;;;;;;;17.33;31.50;100951.63;1710058;82;22578;-74
2022/05/01 09:08:58;;;;;;;4.00;1.30;;;;;;;17.46;31.34;100936.05;1714633;81;21009;-76
2022/05/01 09:14:09;;;;;;;1.90;1.20;;;;;;;17.54;30.26;100936.62;1688666;83;21176;-74
2022/05/01 09:16:36;;;;;;;1.90;1.07;;;;;;;17.54;31.15;100939.30;1684578;83;21155;-75
2022/05/01 09:19:03;;;;;;;2.47;1.12;;;;;;;17.68;30.12;100937.94;1698234;83;21823;-74
2022/05/01 09:21:50;;;;;;;2.65;1.05;;;;;;;17.76;30.06;100936.70;1707080;82;21086;-75
2022/05/01 09:24:27;;;;;;;3.15;1.20;;;;;;;17.81;29.40;100933.55;1678297;83;21091;-76
2022/05/01 09:26:55;;;;;;;2.27;1.00;;;;;;;17.80;29.56;100928.70;1715103;82;21012;-72
2022/05/01 09:29:23;;;;;;;1.95;1.10;;;;;;;17.74;29.31;100932.83;1707921;82;21048;-75
2022/05/01 09:31:54;;;;;;;2.42;1.12;;;;;;;17.74;31.12;100932.83;1702423;82;21971;-77
2022/05/01 09:34:21;;;;;;;2.08;1.40;;;;;;;17.90;30.82;100921.94;1668710;84;21359;-76
2022/05/01 09:36:47;;;;;;;4.67;1.00;;;;;;;18.10;30.47;100919.40;1708728;82;21077;-74
2022/05/01 09:39:25;;;;;;;4.10;1.22;;;;;;;18.23;29.23;100924.31;1699908;82;21637;-77
2022/05/01 09:41:54;;;;;;;2.35;1.20;;;;;;;18.16;28.87;100924.13;1662240;83;21067;-75
2022/05/01 09:44:22;;;;;;;2.08;1.25;;;;;;;18.21;29.74;100923.14;1697475;82;21872;-76
2022/05/01 09:46:51;;;;;;;3.10;1.10;;;;;;;18.33;29.67;100929.55;1713687;82;21232;-79
2022/05/01 09:49:18;;;;;;;4.05;1.25;;;;;;;18.48;29.84;100919.95;1707705;83;21127;-81
2022/05/01 09:51:48;;;;;;;2.77;1.32;;;;;;;18.59;29.59;100916.98;1702302;82;21084;-80
2022/05/01 09:54:25;;;;;;;4.37;1.10;;;;;;;18.60;28.47;100914.65;1692236;82;21078;-77
2022/05/01 09:56:55;;;;;;;2.45;1.20;;;;;;;18.62;29.19;100912.64;1695973;82;21868;-74
2022/05/01 09:59:22;;;;;;;3.02;1.02;;;;;;;18.77;29.96;100913.75;1685109;83;21103;-76
2022/05/01 10:02:02;;;;;;;3.40;1.20;;;;;;;18.96;29.46;100905.95;1708049;81;21054;-76
2022/05/01 10:04:35;;;;;;;2.02;1.45;;;;;;;19.15;29.66;100902.15;1707226;82;21435;-79
2022/05/01 10:07:03;;;;;;;3.35;1.00;;;;;;;19.46;29.86;100907.70;1703369;81;22399;-76
2022/05/01 10:09:33;;;;;;;1.62;1.02;;;;;;;19.73;27.67;100907.41;1697458;82;21951;-76
2022/05/01 10:12:07;;;;;;;1.22;1.00;;;;;;;19.69;27.15;100903.41;1709233;82;21574;-77
2022/05/01 10:14:35;;;;;;;1.75;1.15;;;;;;;19.63;28.19;100908.59;1690376;81;21056;-75
2022/05/01 10:17:02;;;;;;;1.47;1.10;;;;;;;19.68;28.36;100903.55;1688201;83;21182;-74
2022/05/01 10:19:29;;;;;;;1.45;1.10;;;;;;;19.72;28.22;100904.41;1690791;83;20994;-77
2022/05/01 10:21:59;;;;;;;2.12;1.15;;;;;;;19.81;28.64;100897.20;1689862;82;22222;-80
2022/05/01 10:24:26;;;;;;;3.52;1.10;;;;;;;19.99;26.95;100896.50;1704403;82;21586;-74
2022/05/01 10:27:03;;;;;;;2.42;1.20;;;;;;;20.01;27.53;100896.33;1709320;83;21082;-75
2022/05/01 10:33:05;;;;;;;2.12;0.90;;;;;;;20.41;27.79;100890.02;1706064;82;21023;-73
2022/05/01 10:35:58;;;;;;;2.43;1.10;;;;;;;20.54;27.09;100892.17;1685494;83;22522;-75
2022/05/01 10:38:51;;;;;;;28.40;24.75;;;;;;;20.63;26.92;100883.58;1660189;84;21637;-76
2022/05/01 10:41:17;;;;;;;27.20;24.20;;;;;;;20.70;27.90;100885.40;1707135;82;21134;-77
2022/05/01 10:43:58;;;;;;;7.55;6.17;;;;;;;20.72;26.76;100880.68;1709423;82;22092;-75
2022/05/01 10:46:29;;;;;;;3.33;2.77;;;;;;;20.77;27.26;100877.48;1696972;83;21000;-75
2022/05/01 10:49:00;;;;;;;1.98;1.40;;;;;;;20.82;27.36;100885.83;1633737;83;22756;-73
2022/05/01 10:51:41;;;;;;;3.22;2.17;;;;;;;20.97;25.73;100888.62;1670076;82;20971;-75
2022/05/01 10:54:19;;;;;;;5.58;4.10;;;;;;;21.02;26.43;100889.74;1700419;82;21064;-77
2022/05/01 10:56:52;;;;;;;4.55;1.60;;;;;;;21.19;25.96;100888.30;1684004;82;21063;-78
2022/05/01 10:59:46;;;;;;;1.92;1.17;;;;;;;21.32;25.52;100876.48;1705428;82;21013;-82
2022/05/01 11:02:35;;;;;;;3.72;1.15;;;;;;;21.07;24.43;100886.03;1695016;82;21506;-77
2022/05/01 11:05:01;;;;;;;5.58;2.67;;;;;;;20.56;25.26;100882.13;1673155;82;21070;-77
2022/05/01 11:07:28;;;;;;;5.65;3.30;;;;;;;20.32;25.42;100887.03;1694826;82;21017;-77
2022/05/01 11:09:58;;;;;;;2.02;1.50;;;;;;;20.20;25.39;100884.39;1676114;83;21630;-80
2022/05/01 11:12:26;;;;;;;2.58;0.90;;;;;;;20.12;25.18;100885.75;1651853;84;21660;-75
2022/05/01 11:15:06;;;;;;;1.98;1.07;;;;;;;20.05;25.99;100882.06;1666619;83;22737;-78
2022/05/01 11:17:42;;;;;;;1.30;1.07;;;;;;;20.01;26.54;100879.73;1690288;82;21113;-80
2022/05/01 11:20:23;;;;;;;2.17;1.10;;;;;;;20.09;27.18;100872.69;1715540;82;21087;-73
2022/05/01 11:22:52;;;;;;;4.93;1.50;;;;;;;20.14;27.17;100870.31;1679644;83;21020;-76
2022/05/01 11:25:32;;;;;;;19.27;17.25;;;;;;;20.13;26.93;100869.98;1627102;86;21258;-76
2022/05/01 11:27:59;;;;;;;3.33;2.95;;;;;;;20.05;26.72;100861.95;1686437;82;21887;-76
2022/05/01 11:30:32;;;;;;;3.17;1.52;;;;;;;19.87;26.73;100864.83;1690781;83;21062;-78
2022/05/01 11:33:12;;;;;;;4.08;1.20;;;;;;;19.70;26.19;100868.90;1686791;83;21106;-75
2022/05/01 11:36:00;;;;;;;1.62;1.00;;;;;;;19.43;26.50;100868.70;1681887;81;21154;-76
2022/05/01 11:38:40;;;;;;;2.83;1.00;;;;;;;19.25;26.77;100858.64;1696407;82;21514;-79
2022/05/01 11:41:06;;;;;;;3.08;1.10;;;;;;;19.07;27.03;100863.30;1679483;83;21900;-76
2022/05/01 11:43:35;;;;;;;2.95;1.15;;;;;;;18.90;27.07;100861.09;1681063;82;21070;-73
2022/05/01 11:46:03;;;;;;;3.47;0.90;;;;;;;18.84;28.52;100862.59;1709998;82;21036;-76
2022/05/01 11:48:34;;;;;;;1.42;0.80;;;;;;;18.92;27.80;100863.63;1689462;82;20997;-71
2022/05/01 11:51:01;;;;;;;1.65;0.93;;;;;;;18.93;27.56;100860.78;1711237;82;21052;-73
2022/05/01 11:53:31;;;;;;;1.98;1.15;;;;;;;18.92;27.95;100860.45;1696553;82;21747;-72
2022/05/01 12:04:33;;;;;;;2.40;1.47;;;;;;;18.98;27.54;100856.26;1681709;83;21106;-73
2022/05/01 12:07:15;;;;;;;5.30;1.10;;;;;;;18.96;27.63;100850.23;1705974;82;21905;-73
2022/05/01 12:09:46;;;;;;;2.10;1.10;;;;;;;19.04;27.99;100843.56;1690614;83;21128;-73